createdAt,value
2023-03-02T00:00:08.037Z,79
2023-03-02T00:01:08.501Z,79
2023-03-02T00:02:08.297Z,79
2023-03-02T00:03:08.191Z,79
2023-03-02T00:05:08.883Z,79
2023-03-02T00:07:08.869Z,79
2023-03-02T00:08:08.677Z,79
2023-03-02T00:09:08.346Z,79
2023-03-02T00:10:08.200Z,79
2023-03-02T00:11:08.355Z,79
2023-03-02T00:12:08.274Z,79
2023-03-02T00:13:07.949Z,79
2023-03-02T00:14:07.749Z,79
2023-03-02T00:15:08.774Z,79
2023-03-02T00:17:08.570Z,79
2023-03-02T00:18:08.446Z,79
2023-03-02T00:19:08.470Z,79
2023-03-02T00:20:08.338Z,79
2023-03-02T00:21:08.391Z,79
2023-03-02T00:22:10.063Z,79
2023-03-02T00:23:08.127Z,79
2023-03-02T00:24:07.666Z,79
2023-03-02T00:25:08.811Z,79
2023-03-02T00:26:08.027Z,79
2023-03-02T00:27:08.902Z,79
2023-03-02T00:29:08.545Z,79
2023-03-02T00:30:08.203Z,79
2023-03-02T00:31:09.035Z,79
2023-03-02T00:33:08.311Z,79
2023-03-02T00:34:08.115Z,79
2023-03-02T00:35:08.151Z,79
2023-03-02T00:36:08.516Z,79
2023-03-02T00:37:08.329Z,79
2023-03-02T00:38:08.095Z,79
2023-03-02T00:39:08.211Z,79
2023-03-02T00:40:08.130Z,79
2023-03-02T00:41:08.224Z,79
2023-03-02T00:42:07.875Z,79
2023-03-02T00:43:08.914Z,79
2023-03-02T00:44:08.811Z,79
2023-03-02T00:45:08.700Z,79
2023-03-02T00:46:07.854Z,80
2023-03-02T00:47:09.008Z,80
2023-03-02T00:48:08.427Z,80
2023-03-02T00:49:08.465Z,80
2023-03-02T00:50:08.003Z,80
2023-03-02T00:52:08.254Z,80
2023-03-02T00:53:08.018Z,80
2023-03-02T00:54:07.818Z,80
2023-03-02T00:55:08.866Z,80
2023-03-02T00:56:08.088Z,80
2023-03-02T00:57:08.818Z,80
2023-03-02T00:58:08.477Z,80
2023-03-02T00:59:08.313Z,80
2023-03-02T01:00:08.219Z,80
2023-03-02T01:01:08.795Z,80
2023-03-02T01:02:08.831Z,80
2023-03-02T01:03:08.704Z,80
2023-03-02T01:04:08.155Z,80
2023-03-02T01:05:08.137Z,80
2023-03-02T01:06:08.107Z,80
2023-03-02T01:07:08.208Z,80
2023-03-02T01:08:07.895Z,80
2023-03-02T01:09:08.852Z,80
2023-03-02T01:10:08.683Z,80
2023-03-02T01:11:08.451Z,80
2023-03-02T01:12:08.315Z,80
2023-03-02T01:13:07.956Z,80
2023-03-02T01:14:07.870Z,80
2023-03-02T01:16:08.157Z,80
2023-03-02T01:18:08.353Z,80
2023-03-02T01:19:08.669Z,80
2023-03-02T01:20:08.710Z,80
2023-03-02T01:21:07.858Z,80
2023-03-02T01:22:08.908Z,80
2023-03-02T01:23:08.624Z,80
2023-03-02T01:24:08.484Z,80
2023-03-02T01:25:08.470Z,80
2023-03-02T01:26:08.344Z,80
2023-03-02T01:27:08.201Z,80
2023-03-02T01:28:08.063Z,80
2023-03-02T01:29:08.093Z,80
2023-03-02T01:30:08.604Z,80
2023-03-02T01:31:08.783Z,80
2023-03-02T01:32:08.778Z,80
2023-03-02T01:33:08.077Z,80
2023-03-02T01:34:08.023Z,81
2023-03-02T01:35:07.915Z,80
2023-03-02T01:36:08.193Z,81
2023-03-02T01:37:07.775Z,81
2023-03-02T01:38:08.592Z,81
2023-03-02T01:40:08.275Z,81
2023-03-02T01:42:08.447Z,81
2023-03-02T01:43:08.347Z,81
2023-03-02T01:44:08.005Z,81
2023-03-02T01:46:08.712Z,81
2023-03-02T01:47:07.738Z,81
2023-03-02T01:48:08.943Z,81
2023-03-02T01:49:08.515Z,81
2023-03-02T01:51:08.342Z,81
2023-03-02T01:53:08.974Z,81
2023-03-02T01:54:08.846Z,81
2023-03-02T01:55:08.939Z,81
2023-03-02T01:56:08.833Z,81
2023-03-02T01:57:08.637Z,81
2023-03-02T01:58:08.495Z,81
2023-03-02T01:59:08.089Z,81
2023-03-02T02:00:08.451Z,81
2023-03-02T02:01:08.133Z,81
2023-03-02T02:03:08.374Z,81
2023-03-02T02:04:08.828Z,81
2023-03-02T02:06:08.230Z,81
2023-03-02T02:07:07.853Z,81
2023-03-02T02:08:08.996Z,81
2023-03-02T02:09:08.829Z,81
2023-03-02T02:11:08.568Z,81
2023-03-02T02:12:08.510Z,81
2023-03-02T02:13:08.278Z,81
2023-03-02T02:14:08.278Z,81
2023-03-02T02:15:08.351Z,81
2023-03-02T02:16:08.837Z,81
2023-03-02T02:17:08.149Z,81
2023-03-02T02:18:08.067Z,81
2023-03-02T02:19:08.018Z,81
2023-03-02T02:20:07.929Z,81
2023-03-02T02:21:08.352Z,81
2023-03-02T02:22:07.868Z,81
2023-03-02T02:23:07.688Z,81
2023-03-02T02:24:08.898Z,81
2023-03-02T02:26:08.023Z,81
2023-03-02T02:27:08.813Z,81
2023-03-02T02:28:08.550Z,81
2023-03-02T02:29:08.349Z,81
2023-03-02T02:30:08.038Z,81
2023-03-02T02:31:08.612Z,81
2023-03-02T02:32:09.381Z,81
2023-03-02T02:33:08.330Z,81
2023-03-02T02:34:08.173Z,81
2023-03-02T02:35:07.992Z,81
2023-03-02T02:36:08.520Z,81
2023-03-02T02:37:08.001Z,82
2023-03-02T02:38:07.852Z,81
2023-03-02T02:39:08.828Z,82
2023-03-02T02:40:08.642Z,82
2023-03-02T02:41:08.799Z,82
2023-03-02T02:42:08.850Z,82
2023-03-02T02:43:08.509Z,82
2023-03-02T02:45:08.009Z,82
2023-03-02T02:46:08.615Z,82
2023-03-02T02:47:08.021Z,82
2023-03-02T02:48:07.761Z,82
2023-03-02T02:50:08.611Z,82
2023-03-02T02:51:08.066Z,82
2023-03-02T02:52:07.730Z,82
2023-03-02T02:53:08.613Z,82
2023-03-02T02:54:08.436Z,82
2023-03-02T02:55:08.431Z,82
2023-03-02T02:56:08.582Z,82
2023-03-02T02:58:08.274Z,82
2023-03-02T02:59:07.715Z,82
2023-03-02T03:01:09.066Z,82
2023-03-02T03:02:08.693Z,82
2023-03-02T03:04:08.789Z,82
2023-03-02T03:05:08.280Z,82
2023-03-02T03:06:08.546Z,82
2023-03-02T03:07:08.424Z,82
2023-03-02T03:08:08.256Z,82
2023-03-02T03:09:08.050Z,82
2023-03-02T03:10:08.081Z,82
2023-03-02T03:11:07.771Z,82
2023-03-02T03:12:08.755Z,82
2023-03-02T03:13:08.600Z,82
2023-03-02T03:14:08.425Z,82
2023-03-02T03:15:08.245Z,82
2023-03-02T03:16:08.057Z,82
2023-03-02T03:17:08.212Z,82
2023-03-02T03:18:08.831Z,82
2023-03-02T03:19:08.567Z,82
2023-03-02T03:20:08.636Z,82
2023-03-02T03:21:08.450Z,82
2023-03-02T03:22:08.392Z,82
2023-03-02T03:23:08.299Z,83
2023-03-02T03:24:08.129Z,83
2023-03-02T03:25:07.722Z,82
2023-03-02T03:26:08.467Z,82
2023-03-02T03:27:08.025Z,82
2023-03-02T03:28:07.882Z,83
2023-03-02T03:29:08.721Z,83
2023-03-02T03:30:08.596Z,83
2023-03-02T03:31:08.531Z,83
2023-03-02T03:32:08.609Z,83
2023-03-02T03:33:08.209Z,83
2023-03-02T03:34:08.062Z,83
2023-03-02T03:35:07.898Z,83
2023-03-02T03:37:08.249Z,83
2023-03-02T03:38:07.700Z,83
2023-03-02T03:39:08.677Z,83
2023-03-02T03:40:08.458Z,83
2023-03-02T03:41:08.787Z,83
2023-03-02T03:42:08.498Z,83
2023-03-02T03:43:08.137Z,83
2023-03-02T03:44:09.184Z,83
2023-03-02T03:45:08.148Z,83
2023-03-02T03:46:08.718Z,83
2023-03-02T03:47:08.233Z,83
2023-03-02T03:50:07.924Z,83
2023-03-02T03:52:08.110Z,83
2023-03-02T03:54:08.753Z,83
2023-03-02T03:55:08.681Z,83
2023-03-02T03:56:08.564Z,83
2023-03-02T03:57:08.588Z,83
2023-03-02T03:58:08.436Z,83
2023-03-02T03:59:08.045Z,83
2023-03-02T04:01:08.846Z,83
2023-03-02T04:02:08.574Z,83
2023-03-02T04:03:08.357Z,83
2023-03-02T04:04:07.926Z,83
2023-03-02T04:05:08.328Z,83
2023-03-02T04:06:08.340Z,83
2023-03-02T04:07:08.207Z,83
2023-03-02T04:08:08.110Z,83
2023-03-02T04:09:07.952Z,83
2023-03-02T04:10:08.710Z,83
2023-03-02T04:12:08.218Z,83
2023-03-02T04:13:07.987Z,83
2023-03-02T04:14:08.778Z,83
2023-03-02T04:15:08.730Z,83
2023-03-02T04:16:08.499Z,83
2023-03-02T04:17:07.926Z,83
2023-03-02T04:18:08.047Z,83
2023-03-02T04:19:08.719Z,83
2023-03-02T04:20:08.382Z,83
2023-03-02T04:21:07.897Z,83
2023-03-02T04:22:08.715Z,83
2023-03-02T04:23:08.318Z,83
2023-03-02T04:24:08.593Z,83
2023-03-02T04:25:07.902Z,83
2023-03-02T04:26:08.504Z,83
2023-03-02T04:27:08.457Z,83
2023-03-02T04:28:08.220Z,83
2023-03-02T04:29:07.917Z,83
2023-03-02T04:30:08.714Z,83
2023-03-02T04:31:08.912Z,83
2023-03-02T04:32:08.740Z,83
2023-03-02T04:33:08.506Z,83
2023-03-02T04:34:08.321Z,83
2023-03-02T04:35:08.380Z,83
2023-03-02T04:36:08.723Z,83
2023-03-02T04:37:08.291Z,83
2023-03-02T04:38:08.109Z,83
2023-03-02T04:39:07.892Z,83
2023-03-02T04:40:08.889Z,83
2023-03-02T04:41:08.119Z,83
2023-03-02T04:42:08.045Z,83
2023-03-02T04:43:07.738Z,83
2023-03-02T04:44:08.671Z,83
2023-03-02T04:45:08.668Z,83
2023-03-02T04:48:08.148Z,83
2023-03-02T04:49:07.772Z,83
2023-03-02T04:50:08.881Z,83
2023-03-02T04:51:07.977Z,83
2023-03-02T04:52:07.945Z,83
2023-03-02T04:53:08.828Z,83
2023-03-02T04:54:08.685Z,83
2023-03-02T04:55:08.363Z,83
2023-03-02T04:56:08.626Z,83
2023-03-02T04:57:08.611Z,83
2023-03-02T04:58:08.444Z,83
2023-03-02T04:59:08.101Z,83
2023-03-02T05:01:07.898Z,83
2023-03-02T05:02:08.238Z,83
2023-03-02T05:04:09.598Z,83
2023-03-02T05:05:08.632Z,83
2023-03-02T05:07:08.731Z,83
2023-03-02T05:08:08.587Z,83
2023-03-02T05:09:08.580Z,83
2023-03-02T05:12:08.159Z,83
2023-03-02T05:13:08.044Z,83
2023-03-02T05:14:07.921Z,83
2023-03-02T05:15:07.991Z,83
2023-03-02T05:16:08.610Z,83
2023-03-02T05:17:08.326Z,83
2023-03-02T05:18:07.890Z,83
2023-03-02T05:19:07.888Z,83
2023-03-02T05:20:08.687Z,83
2023-03-02T05:21:08.058Z,83
2023-03-02T05:22:08.010Z,83
2023-03-02T05:24:08.869Z,83
2023-03-02T05:25:08.703Z,83
2023-03-02T05:26:08.113Z,83
2023-03-02T05:27:07.786Z,83
2023-03-02T05:28:08.688Z,83
2023-03-02T05:29:08.502Z,83
2023-03-02T05:30:08.404Z,83
2023-03-02T05:31:09.012Z,83
2023-03-02T05:32:08.847Z,83
2023-03-02T05:33:08.453Z,83
2023-03-02T05:34:08.180Z,83
2023-03-02T05:35:08.043Z,83
2023-03-02T05:36:08.500Z,83
2023-03-02T05:37:07.812Z,83
2023-03-02T05:38:07.977Z,83
2023-03-02T05:39:08.929Z,83
2023-03-02T05:40:08.683Z,83
2023-03-02T05:41:07.802Z,83
2023-03-02T05:42:08.802Z,83
2023-03-02T05:43:08.691Z,83
2023-03-02T05:44:08.257Z,83
2023-03-02T05:45:08.415Z,83
2023-03-02T05:46:08.715Z,83
2023-03-02T05:47:08.758Z,83
2023-03-02T05:48:08.462Z,83
2023-03-02T05:49:08.233Z,83
2023-03-02T05:50:08.010Z,83
2023-03-02T05:51:08.467Z,83
2023-03-02T05:52:08.263Z,83
2023-03-02T05:53:08.159Z,83
2023-03-02T05:54:08.015Z,83
2023-03-02T05:55:07.876Z,83
2023-03-02T05:56:08.201Z,83
2023-03-02T05:58:08.723Z,83
2023-03-02T05:59:08.671Z,83
2023-03-02T06:00:08.713Z,83
2023-03-02T06:01:07.728Z,83
2023-03-02T06:02:08.730Z,83
2023-03-02T06:03:08.941Z,83
2023-03-02T06:04:08.272Z,83
2023-03-02T06:05:08.154Z,83
2023-03-02T06:06:08.692Z,83
2023-03-02T06:07:08.176Z,83
2023-03-02T06:08:08.165Z,83
2023-03-02T06:09:08.018Z,83
2023-03-02T06:10:08.137Z,83
2023-03-02T06:11:07.907Z,83
2023-03-02T06:12:07.768Z,83
2023-03-02T06:13:08.916Z,83
2023-03-02T06:14:08.470Z,83
2023-03-02T06:15:08.330Z,83
2023-03-02T06:16:08.830Z,83
2023-03-02T06:17:08.416Z,83
2023-03-02T06:18:08.257Z,83
2023-03-02T06:19:07.850Z,83
2023-03-02T06:20:07.960Z,83
2023-03-02T06:22:07.706Z,83
2023-03-02T06:23:07.715Z,83
2023-03-02T06:24:07.702Z,83
2023-03-02T06:25:08.678Z,83
2023-03-02T06:26:08.022Z,83
2023-03-02T06:27:08.726Z,83
2023-03-02T06:28:08.555Z,83
2023-03-02T06:29:08.303Z,83
2023-03-02T06:30:08.096Z,83
2023-03-02T06:31:08.618Z,83
2023-03-02T06:32:08.918Z,83
2023-03-02T06:33:08.059Z,83
2023-03-02T06:34:08.053Z,83
2023-03-02T06:35:08.278Z,83
2023-03-02T06:36:08.555Z,83
2023-03-02T06:37:08.810Z,83
2023-03-02T06:38:08.775Z,83
2023-03-02T06:40:08.522Z,83
2023-03-02T06:41:08.406Z,83
2023-03-02T06:42:08.426Z,83
2023-03-02T06:43:10.507Z,83
2023-03-02T06:44:08.177Z,83
2023-03-02T06:45:08.086Z,83
2023-03-02T06:46:08.204Z,83
2023-03-02T06:47:08.570Z,83
2023-03-02T06:48:08.649Z,83
2023-03-02T06:50:08.326Z,83
2023-03-02T06:51:08.268Z,83
2023-03-02T06:52:08.188Z,83
2023-03-02T06:53:08.094Z,83
2023-03-02T06:54:08.067Z,82
2023-03-02T06:55:08.050Z,82
2023-03-02T06:56:08.196Z,82
2023-03-02T06:57:08.105Z,82
2023-03-02T06:58:08.035Z,82
2023-03-02T06:59:08.779Z,82
2023-03-02T07:01:09.109Z,82
2023-03-02T07:02:08.502Z,82
2023-03-02T07:03:08.521Z,82
2023-03-02T07:04:08.826Z,82
2023-03-02T07:05:08.092Z,82
2023-03-02T07:06:08.579Z,82
2023-03-02T07:07:08.124Z,82
2023-03-02T07:08:08.146Z,82
2023-03-02T07:09:08.033Z,82
2023-03-02T07:10:07.803Z,81
2023-03-02T07:11:08.243Z,82
2023-03-02T07:12:07.819Z,82
2023-03-02T07:13:11.172Z,82
2023-03-02T07:14:08.804Z,82
2023-03-02T07:15:08.469Z,82
2023-03-02T07:16:08.255Z,82
2023-03-02T07:17:08.479Z,82
2023-03-02T07:18:07.868Z,82
2023-03-02T07:19:08.144Z,82
2023-03-02T07:20:07.878Z,82
2023-03-02T07:21:08.194Z,81
2023-03-02T07:22:07.797Z,81
2023-03-02T07:23:08.725Z,81
2023-03-02T07:24:08.428Z,81
2023-03-02T07:25:08.245Z,81
2023-03-02T07:26:08.188Z,81
2023-03-02T07:27:08.145Z,81
2023-03-02T07:28:07.981Z,81
2023-03-02T07:29:07.992Z,81
2023-03-02T07:31:08.411Z,80
2023-03-02T07:32:09.689Z,80
2023-03-02T07:33:08.073Z,80
2023-03-02T07:34:08.683Z,80
2023-03-02T07:35:08.461Z,80
2023-03-02T07:37:08.554Z,80
2023-03-02T07:38:08.348Z,80
2023-03-02T07:39:08.346Z,80
2023-03-02T07:40:08.230Z,80
2023-03-02T07:41:07.889Z,80
2023-03-02T07:42:08.113Z,80
2023-03-02T07:43:08.062Z,80
2023-03-02T07:44:07.839Z,80
2023-03-02T07:45:08.886Z,80
2023-03-02T07:46:08.455Z,80
2023-03-02T07:47:08.215Z,80
2023-03-02T07:48:07.953Z,80
2023-03-02T07:49:08.022Z,80
2023-03-02T07:50:09.099Z,79
2023-03-02T07:51:08.166Z,79
2023-03-02T07:53:08.041Z,79
2023-03-02T07:54:08.802Z,79
2023-03-02T07:55:08.497Z,79
2023-03-02T07:56:08.958Z,79
2023-03-02T07:57:08.599Z,79
2023-03-02T07:58:08.456Z,79
2023-03-02T07:59:08.479Z,79
2023-03-02T08:00:08.314Z,79
2023-03-02T08:01:08.789Z,78
2023-03-02T08:02:08.685Z,78
2023-03-02T08:03:08.696Z,78
2023-03-02T08:04:07.858Z,78
2023-03-02T08:05:08.043Z,78
2023-03-02T08:06:08.193Z,78
2023-03-02T08:07:08.203Z,78
2023-03-02T08:08:08.031Z,78
2023-03-02T08:10:08.347Z,78
2023-03-02T08:11:08.702Z,77
2023-03-02T08:12:08.309Z,77
2023-03-02T08:13:08.405Z,77
2023-03-02T08:14:08.177Z,77
2023-03-02T08:16:08.172Z,77
2023-03-02T08:17:07.844Z,77
2023-03-02T08:18:08.863Z,77
2023-03-02T08:20:08.456Z,77
2023-03-02T08:21:08.373Z,77
2023-03-02T08:23:08.191Z,77
2023-03-02T08:25:08.094Z,77
2023-03-02T08:26:08.357Z,77
2023-03-02T08:27:08.486Z,76
2023-03-02T08:28:08.101Z,76
2023-03-02T08:29:07.830Z,76
2023-03-02T08:30:08.880Z,76
2023-03-02T08:31:08.105Z,76
2023-03-02T08:32:09.861Z,76
2023-03-02T08:33:13.198Z,75
2023-03-02T08:34:08.410Z,75
2023-03-02T08:36:08.865Z,75
2023-03-02T08:37:08.437Z,76
2023-03-02T08:38:08.331Z,75
2023-03-02T08:39:07.916Z,75
2023-03-02T08:40:07.889Z,75
2023-03-02T08:41:08.054Z,75
2023-03-02T08:42:08.810Z,75
2023-03-02T08:43:10.992Z,75
2023-03-02T08:44:08.393Z,75
2023-03-02T08:45:08.291Z,74
2023-03-02T08:46:08.923Z,74
2023-03-02T08:47:08.611Z,74
2023-03-02T08:48:08.205Z,74
2023-03-02T08:49:08.339Z,74
2023-03-02T08:50:08.170Z,74
2023-03-02T08:51:08.042Z,74
2023-03-02T08:52:07.870Z,74
2023-03-02T08:53:08.696Z,74
2023-03-02T08:54:08.479Z,73
2023-03-02T08:55:10.435Z,73
2023-03-02T08:56:08.545Z,73
2023-03-02T08:57:08.363Z,73
2023-03-02T08:58:08.097Z,73
2023-03-02T08:59:07.950Z,72
2023-03-02T09:00:07.945Z,72
2023-03-02T09:01:08.391Z,72
2023-03-02T09:02:07.943Z,72
2023-03-02T09:03:08.826Z,72
2023-03-02T09:04:09.036Z,72
2023-03-02T09:05:08.499Z,72
2023-03-02T09:07:08.564Z,71
2023-03-02T09:08:08.220Z,71
2023-03-02T09:09:08.162Z,71
2023-03-02T09:10:08.046Z,71
2023-03-02T09:11:08.261Z,71
2023-03-02T09:12:07.971Z,71
2023-03-02T09:13:11.616Z,71
2023-03-02T09:14:08.660Z,71
2023-03-02T09:15:08.482Z,70
2023-03-02T09:16:08.074Z,70
2023-03-02T09:19:08.706Z,68
2023-03-02T09:20:08.771Z,68
2023-03-02T09:21:08.125Z,68
2023-03-02T09:22:07.854Z,68
2023-03-02T09:23:07.846Z,68
2023-03-02T09:24:08.807Z,68
2023-03-02T09:25:08.341Z,68
2023-03-02T09:26:08.510Z,68
2023-03-02T09:27:08.737Z,68
2023-03-02T09:28:08.265Z,68
2023-03-02T09:29:08.241Z,68
2023-03-02T09:30:08.098Z,67
2023-03-02T09:31:08.354Z,67
2023-03-02T09:32:08.494Z,66
2023-03-02T09:33:08.257Z,66
2023-03-02T09:34:07.936Z,66
2023-03-02T09:35:08.821Z,67
2023-03-02T09:36:07.887Z,67
2023-03-02T09:37:08.797Z,67
2023-03-02T09:38:09.048Z,67
2023-03-02T09:39:08.270Z,67
2023-03-02T09:40:08.155Z,67
2023-03-02T09:41:08.442Z,66
2023-03-02T09:42:08.399Z,65
2023-03-02T09:43:08.049Z,65
2023-03-02T09:44:07.726Z,65
2023-03-02T09:46:08.642Z,65
2023-03-02T09:47:08.037Z,65
2023-03-02T09:48:07.901Z,64
2023-03-02T09:49:09.537Z,64
2023-03-02T09:50:08.372Z,64
2023-03-02T09:51:08.516Z,64
2023-03-02T09:52:08.369Z,64
2023-03-02T09:53:08.611Z,64
2023-03-02T09:55:07.796Z,64
2023-03-02T09:56:08.095Z,64
2023-03-02T09:57:07.932Z,64
2023-03-02T09:58:08.839Z,64
2023-03-02T09:59:07.859Z,64
2023-03-02T10:00:24.832Z,63
2023-03-02T10:01:08.551Z,64
2023-03-02T10:02:08.960Z,63
2023-03-02T10:06:08.730Z,63
2023-03-02T10:09:07.799Z,63
2023-03-02T10:10:08.108Z,63
2023-03-02T10:11:09.255Z,63
2023-03-02T10:12:08.004Z,63
2023-03-02T10:13:08.863Z,63
2023-03-02T10:14:08.770Z,63
2023-03-02T10:15:08.443Z,63
2023-03-02T10:17:08.389Z,62
2023-03-02T10:18:08.345Z,62
2023-03-02T10:19:10.706Z,62
2023-03-02T10:20:09.073Z,61
2023-03-02T10:21:08.037Z,61
2023-03-02T10:22:07.934Z,61
2023-03-02T10:23:08.221Z,61
2023-03-02T10:24:08.136Z,61
2023-03-02T10:25:08.267Z,61
2023-03-02T10:26:08.157Z,61
2023-03-02T10:27:08.120Z,60
2023-03-02T10:28:07.898Z,60
2023-03-02T10:29:08.908Z,60
2023-03-02T10:30:08.751Z,60
2023-03-02T10:31:11.738Z,60
2023-03-02T10:32:08.537Z,60
2023-03-02T10:33:08.305Z,59
2023-03-02T10:34:08.212Z,59
2023-03-02T10:35:08.017Z,59
2023-03-02T10:37:07.776Z,59
2023-03-02T10:38:08.338Z,59
2023-03-02T10:40:08.402Z,59
2023-03-02T10:41:08.403Z,59
2023-03-02T10:42:08.954Z,59
2023-03-02T10:43:08.533Z,59
2023-03-02T10:45:08.162Z,59
2023-03-02T10:46:08.752Z,59
2023-03-02T10:47:08.386Z,59
2023-03-02T10:48:08.028Z,59
2023-03-02T10:49:07.936Z,59
2023-03-02T10:50:07.739Z,59
2023-03-02T10:52:07.974Z,58
2023-03-02T10:54:08.877Z,58
2023-03-02T10:55:08.580Z,58
2023-03-02T10:56:08.836Z,57
2023-03-02T10:57:08.724Z,57
2023-03-02T10:58:08.537Z,57
2023-03-02T10:59:08.196Z,57
2023-03-02T11:00:07.873Z,57
2023-03-02T11:01:08.435Z,57
2023-03-02T11:02:08.509Z,57
2023-03-02T11:04:08.068Z,57
2023-03-02T11:05:08.897Z,57
2023-03-02T11:06:08.308Z,57
2023-03-02T11:07:08.062Z,57
2023-03-02T11:08:08.174Z,57
2023-03-02T11:09:09.101Z,56
2023-03-02T11:10:08.661Z,56
2023-03-02T11:11:08.064Z,56
2023-03-02T11:12:08.010Z,56
2023-03-02T11:13:08.881Z,56
2023-03-02T11:14:08.713Z,56
2023-03-02T11:16:08.781Z,55
2023-03-02T11:17:09.944Z,56
2023-03-02T11:20:07.980Z,55
2023-03-02T11:21:08.184Z,55
2023-03-02T11:23:08.772Z,55
2023-03-02T11:24:10.458Z,55
2023-03-02T11:25:08.439Z,55
2023-03-02T11:26:08.707Z,56
2023-03-02T11:27:08.408Z,56
2023-03-02T11:28:08.350Z,56
2023-03-02T11:30:08.174Z,55
2023-03-02T11:31:08.648Z,55
2023-03-02T11:32:08.782Z,55
2023-03-02T11:33:08.304Z,54
2023-03-02T11:34:22.268Z,54
2023-03-02T11:35:07.826Z,55
2023-03-02T11:36:08.650Z,55
2023-03-02T11:37:08.012Z,55
2023-03-02T11:38:07.820Z,55
2023-03-02T11:39:07.822Z,55
2023-03-02T11:40:08.707Z,54
2023-03-02T11:42:09.026Z,55
2023-03-02T11:43:08.544Z,55
2023-03-02T11:44:08.388Z,55
2023-03-02T11:45:08.101Z,54
2023-03-02T11:46:26.137Z,54
2023-03-02T11:47:09.179Z,54
2023-03-02T11:48:10.105Z,54
2023-03-02T11:49:08.823Z,54
2023-03-02T11:51:08.653Z,55
2023-03-02T11:53:08.252Z,55
2023-03-02T11:54:08.347Z,55
2023-03-02T11:55:08.095Z,54
2023-03-02T11:57:08.212Z,54
2023-03-02T11:58:08.030Z,54
2023-03-02T12:00:07.923Z,54
2023-03-02T12:01:08.154Z,54
2023-03-02T12:03:07.953Z,54
2023-03-02T12:04:08.751Z,53
2023-03-02T12:05:08.802Z,53
2023-03-02T12:06:10.164Z,53
2023-03-02T12:07:08.739Z,53
2023-03-02T12:08:08.532Z,53
2023-03-02T12:09:08.568Z,53
2023-03-02T12:10:08.294Z,53
2023-03-02T12:11:08.410Z,52
2023-03-02T12:12:09.674Z,52
2023-03-02T12:13:08.193Z,53
2023-03-02T12:14:08.077Z,53
2023-03-02T12:15:08.095Z,53
2023-03-02T12:16:08.490Z,53
2023-03-02T12:17:08.407Z,53
2023-03-02T12:18:08.361Z,53
2023-03-02T12:19:07.668Z,53
2023-03-02T12:20:08.937Z,53
2023-03-02T12:21:08.735Z,53
2023-03-02T12:22:08.646Z,53
2023-03-02T12:23:08.216Z,53
2023-03-02T12:25:09.143Z,53
2023-03-02T12:27:08.311Z,53
2023-03-02T12:28:07.764Z,53
2023-03-02T12:29:08.657Z,53
2023-03-02T12:30:08.788Z,53
2023-03-02T12:32:09.163Z,53
2023-03-02T12:33:08.480Z,53
2023-03-02T12:34:08.492Z,53
2023-03-02T12:35:08.323Z,53
2023-03-02T12:36:08.419Z,53
2023-03-02T12:38:08.406Z,53
2023-03-02T12:39:07.954Z,53
2023-03-02T12:40:09.675Z,53
2023-03-02T12:41:07.962Z,53
2023-03-02T12:42:08.909Z,53
2023-03-02T12:43:08.777Z,53
2023-03-02T12:44:08.634Z,53
2023-03-02T12:45:08.369Z,53
2023-03-02T12:46:08.976Z,53
2023-03-02T12:47:10.767Z,53
2023-03-02T12:48:10.020Z,53
2023-03-02T12:49:12.601Z,53
2023-03-02T12:50:08.083Z,53
2023-03-02T12:51:08.777Z,53
2023-03-02T12:52:08.832Z,53
2023-03-02T12:53:08.100Z,53
2023-03-02T12:54:08.104Z,52
2023-03-02T12:55:07.849Z,52
2023-03-02T12:56:08.573Z,53
2023-03-02T12:57:08.141Z,53
2023-03-02T12:58:10.644Z,53
2023-03-02T12:59:08.805Z,53
2023-03-02T13:00:08.919Z,53
2023-03-02T13:02:07.889Z,53
2023-03-02T13:03:08.036Z,53
2023-03-02T13:04:08.848Z,52
2023-03-02T13:05:08.635Z,52
2023-03-02T13:06:08.530Z,52
2023-03-02T13:07:08.540Z,52
2023-03-02T13:09:08.586Z,53
2023-03-02T13:10:08.288Z,53
2023-03-02T13:11:08.386Z,53
2023-03-02T13:12:08.038Z,53
2023-03-02T13:13:08.323Z,53
2023-03-02T13:15:08.717Z,53
2023-03-02T13:16:07.943Z,53
2023-03-02T13:17:09.045Z,53
2023-03-02T13:18:09.788Z,53
2023-03-02T13:19:08.395Z,53
2023-03-02T13:20:08.358Z,53
2023-03-02T13:21:07.993Z,53
2023-03-02T13:22:08.893Z,52
2023-03-02T13:23:08.639Z,52
2023-03-02T13:26:08.536Z,52
2023-03-02T13:28:08.283Z,52
2023-03-02T13:29:07.950Z,52
2023-03-02T13:30:10.274Z,52
2023-03-02T13:31:09.011Z,52
2023-03-02T13:32:08.286Z,52
2023-03-02T13:33:07.965Z,52
2023-03-02T13:34:08.842Z,52
2023-03-02T13:35:08.646Z,52
2023-03-02T13:36:07.963Z,52
2023-03-02T13:37:08.857Z,52
2023-03-02T13:38:08.945Z,52
2023-03-02T13:39:08.219Z,52
2023-03-02T13:40:08.277Z,52
2023-03-02T13:41:10.047Z,53
2023-03-02T13:42:08.337Z,53
2023-03-02T13:43:08.284Z,52
2023-03-02T13:44:08.277Z,53
2023-03-02T13:45:07.704Z,53
2023-03-02T13:46:08.521Z,53
2023-03-02T13:47:08.041Z,53
2023-03-02T13:48:08.012Z,53
2023-03-02T13:49:17.654Z,53
2023-03-02T13:50:08.715Z,53
2023-03-02T13:51:08.108Z,53
2023-03-02T13:52:10.449Z,53
2023-03-02T13:53:07.798Z,52
2023-03-02T13:54:08.613Z,52
2023-03-02T13:55:08.445Z,53
2023-03-02T13:56:08.112Z,53
2023-03-02T13:57:07.818Z,53
2023-03-02T13:58:08.785Z,53
2023-03-02T13:59:08.618Z,53
2023-03-02T14:02:08.118Z,53
2023-03-02T14:03:07.708Z,53
2023-03-02T14:04:08.745Z,53
2023-03-02T14:05:09.051Z,53
2023-03-02T14:06:08.666Z,53
2023-03-02T14:07:08.446Z,53
2023-03-02T14:08:08.479Z,53
2023-03-02T14:09:08.042Z,52
2023-03-02T14:10:08.243Z,52
2023-03-02T14:11:07.835Z,52
2023-03-02T14:12:08.243Z,52
2023-03-02T14:13:08.064Z,53
2023-03-02T14:14:07.800Z,53
2023-03-02T14:15:08.779Z,53
2023-03-02T14:16:09.105Z,53
2023-03-02T14:17:08.558Z,53
2023-03-02T14:18:08.489Z,53
2023-03-02T14:19:08.473Z,53
2023-03-02T14:20:08.393Z,53
2023-03-02T14:21:08.540Z,53
2023-03-02T14:22:08.339Z,53
2023-03-02T14:23:09.755Z,53
2023-03-02T14:24:08.287Z,52
2023-03-02T14:25:08.049Z,52
2023-03-02T14:26:08.490Z,53
2023-03-02T14:27:08.433Z,53
2023-03-02T14:28:08.628Z,53
2023-03-02T14:29:12.599Z,53
2023-03-02T14:30:08.181Z,53
2023-03-02T14:31:08.624Z,53
2023-03-02T14:32:08.370Z,52
2023-03-02T14:33:08.051Z,52
2023-03-02T14:34:08.829Z,53
2023-03-02T14:36:08.022Z,53
2023-03-02T14:37:08.010Z,53
2023-03-02T14:38:08.688Z,53
2023-03-02T14:39:08.347Z,53
2023-03-02T14:40:08.563Z,53
2023-03-02T14:41:08.939Z,53
2023-03-02T14:42:08.734Z,53
2023-03-02T14:44:08.338Z,53
2023-03-02T14:45:08.213Z,53
2023-03-02T14:46:08.682Z,53
2023-03-02T14:48:08.228Z,53
2023-03-02T14:49:08.029Z,53
2023-03-02T14:50:08.812Z,53
2023-03-02T14:51:08.043Z,53
2023-03-02T14:52:07.993Z,53
2023-03-02T14:53:08.537Z,53
2023-03-02T14:54:08.427Z,53
2023-03-02T14:55:08.366Z,53
2023-03-02T14:56:08.526Z,53
2023-03-02T14:57:08.776Z,53
2023-03-02T14:59:08.393Z,53
2023-03-02T15:00:08.112Z,53
2023-03-02T15:01:08.658Z,54
2023-03-02T15:02:29.590Z,54
2023-03-02T15:03:08.482Z,54
2023-03-02T15:04:08.238Z,54
2023-03-02T15:05:08.111Z,54
2023-03-02T15:06:08.677Z,53
2023-03-02T15:07:08.383Z,53
2023-03-02T15:08:08.158Z,54
2023-03-02T15:09:07.877Z,54
2023-03-02T15:10:08.906Z,54
2023-03-02T15:11:08.138Z,54
2023-03-02T15:12:08.132Z,54
2023-03-02T15:13:07.846Z,54
2023-03-02T15:14:08.375Z,54
2023-03-02T15:15:07.994Z,54
2023-03-02T15:16:08.237Z,54
2023-03-02T15:18:08.734Z,54
2023-03-02T15:19:08.461Z,54
2023-03-02T15:20:08.292Z,54
2023-03-02T15:21:08.654Z,54
2023-03-02T15:23:08.416Z,54
2023-03-02T15:24:08.086Z,54
2023-03-02T15:25:08.468Z,54
2023-03-02T15:26:08.443Z,54
2023-03-02T15:27:08.255Z,54
2023-03-02T15:28:08.170Z,54
2023-03-02T15:29:08.098Z,54
2023-03-02T15:30:08.799Z,54
2023-03-02T15:31:08.324Z,54
2023-03-02T15:32:08.449Z,54
2023-03-02T15:33:07.965Z,54
2023-03-02T15:34:08.064Z,54
2023-03-02T15:35:08.866Z,54
2023-03-02T15:36:08.075Z,54
2023-03-02T15:37:08.843Z,54
2023-03-02T15:38:08.445Z,54
2023-03-02T15:39:08.618Z,54
2023-03-02T15:40:08.424Z,55
2023-03-02T15:41:08.803Z,55
2023-03-02T15:42:08.567Z,55
2023-03-02T15:43:08.880Z,55
2023-03-02T15:44:08.409Z,55
2023-03-02T15:45:08.377Z,55
2023-03-02T15:46:08.005Z,55
2023-03-02T15:47:08.793Z,55
2023-03-02T15:49:08.406Z,55
2023-03-02T15:50:08.048Z,55
2023-03-02T15:51:08.459Z,55
2023-03-02T15:52:08.399Z,55
2023-03-02T15:53:08.242Z,55